createdAt,value
2018-04-16T00:01:29.864Z,90.20
2018-04-16T00:03:57.415Z,90.20
2018-04-16T00:06:25.750Z,90.20
2018-04-16T00:08:54.065Z,90.10
2018-04-16T00:11:22.404Z,90.00
2018-04-16T00:13:50.715Z,90.20
2018-04-16T00:16:19.053Z,90.20
2018-04-16T00:18:47.379Z,90.20
2018-04-16T00:21:15.722Z,90.10
2018-04-16T00:23:44.039Z,90.10
2018-04-16T00:26:12.386Z,90.10
2018-04-16T00:28:40.690Z,90.10
2018-04-16T00:31:09.033Z,90.20
2018-04-16T00:33:43.061Z,90.20
2018-04-16T00:36:19.149Z,90.20
2018-04-16T00:38:53.206Z,90.30
2018-04-16T00:41:39.441Z,90.30
2018-04-16T00:44:13.355Z,90.30
2018-04-16T00:46:47.270Z,90.30
2018-04-16T00:49:21.217Z,90.10
2018-04-16T00:51:55.134Z,90.00
2018-04-16T00:54:29.048Z,90.20
2018-04-16T00:57:02.942Z,90.40
2018-04-16T00:59:36.065Z,90.30
2018-04-16T01:02:09.997Z,90.80
2018-04-16T01:04:47.941Z,90.70
2018-04-16T01:07:22.004Z,90.70
2018-04-16T01:09:56.078Z,90.80
2018-04-16T01:12:30.223Z,90.70
2018-04-16T01:15:04.144Z,90.60
2018-04-16T01:17:38.127Z,90.50
2018-04-16T01:20:12.080Z,90.50
2018-04-16T01:22:46.206Z,90.40
2018-04-16T01:25:20.320Z,90.30
2018-04-16T01:27:54.323Z,90.40
2018-04-16T01:30:28.395Z,90.50
2018-04-16T01:33:02.437Z,90.50
2018-04-16T01:35:36.382Z,90.80
2018-04-16T01:38:10.317Z,90.40
2018-04-16T01:40:44.306Z,90.50
2018-04-16T01:43:28.334Z,90.50
2018-04-16T01:46:02.306Z,90.60
2018-04-16T01:48:36.283Z,90.50
2018-04-16T01:51:10.333Z,90.70
2018-04-16T01:53:44.303Z,90.20
2018-04-16T01:56:18.333Z,90.00
2018-04-16T01:58:52.337Z,90.00
2018-04-16T02:01:26.254Z,89.80
2018-04-16T02:04:00.299Z,89.50
2018-04-16T02:06:47.347Z,89.20
2018-04-16T02:09:21.249Z,89.10
2018-04-16T02:11:55.150Z,88.90
2018-04-16T02:14:29.113Z,89.10
2018-04-16T02:17:03.035Z,89.10
2018-04-16T02:19:37.099Z,89.10
2018-04-16T02:22:11.194Z,89.10
2018-04-16T02:24:45.235Z,88.90
2018-04-16T02:27:19.246Z,89.00
2018-04-16T02:29:53.169Z,89.30
2018-04-16T02:32:27.114Z,89.40
2018-04-16T02:35:01.235Z,89.60
2018-04-16T02:37:34.611Z,90.10
2018-04-16T02:40:08.549Z,89.80
2018-04-16T02:42:42.460Z,90.00
2018-04-16T02:45:16.436Z,89.40
2018-04-16T02:48:02.524Z,90.00
2018-04-16T02:50:36.681Z,90.30
2018-04-16T02:53:10.743Z,90.40
2018-04-16T02:55:44.624Z,90.20
2018-04-16T02:58:18.565Z,90.70
2018-04-16T03:00:52.497Z,90.30
2018-04-16T03:03:26.562Z,90.30
2018-04-16T03:06:00.461Z,90.20
2018-04-16T03:08:34.362Z,90.30
2018-04-16T03:11:08.454Z,90.30
2018-04-16T03:13:42.442Z,90.30
2018-04-16T03:16:16.443Z,90.40
2018-04-16T03:18:50.337Z,90.50
2018-04-16T03:21:24.273Z,90.60
2018-04-16T03:23:58.257Z,90.60
2018-04-16T03:26:32.313Z,90.70
2018-04-16T03:29:05.434Z,90.60
2018-04-16T03:31:39.426Z,90.60
2018-04-16T03:34:26.580Z,90.50
2018-04-16T03:37:00.501Z,90.50
2018-04-16T03:39:34.536Z,90.40
2018-04-16T03:42:08.468Z,90.50
2018-04-16T03:44:42.391Z,90.50
2018-04-16T03:47:16.286Z,90.40
2018-04-16T03:49:50.217Z,90.40
2018-04-16T03:52:24.208Z,90.30
2018-04-16T03:54:53.400Z,90.30
2018-04-16T03:57:21.733Z,90.30
2018-04-16T03:59:50.037Z,90.30
2018-04-16T04:02:18.363Z,90.20
2018-04-16T04:04:46.678Z,90.20
2018-04-16T04:07:15.013Z,90.10
2018-04-16T04:09:43.324Z,90.00
2018-04-16T04:12:11.658Z,90.00
2018-04-16T04:14:39.972Z,90.20
2018-04-16T04:17:08.289Z,90.30
2018-04-16T04:19:36.611Z,90.40
2018-04-16T04:22:04.924Z,90.40
2018-04-16T04:24:45.149Z,90.30
2018-04-16T04:27:25.295Z,90.20
2018-04-16T04:30:05.454Z,90.20
2018-04-16T04:32:33.768Z,90.20
2018-04-16T04:35:02.104Z,90.20
2018-04-16T04:37:30.419Z,90.20
2018-04-16T04:39:58.753Z,90.30
2018-04-16T04:42:27.072Z,90.30
2018-04-16T04:44:55.426Z,90.20
2018-04-16T04:47:23.735Z,90.20
2018-04-16T04:49:52.068Z,90.10
2018-04-16T04:52:20.373Z,90.00
2018-04-16T04:54:48.714Z,90.00
2018-04-16T04:57:17.029Z,89.90
2018-04-16T04:59:45.358Z,89.80
2018-04-16T05:02:13.667Z,89.80
2018-04-16T05:04:41.998Z,89.60
2018-04-16T05:07:10.300Z,89.60
2018-04-16T05:09:38.631Z,89.40
2018-04-16T05:12:06.933Z,89.60
2018-04-16T05:14:35.254Z,90.00
2018-04-16T05:17:03.565Z,90.10
2018-04-16T05:19:31.898Z,90.10
2018-04-16T05:22:00.214Z,90.00
2018-04-16T05:24:28.545Z,89.90
2018-04-16T05:26:56.854Z,89.60
2018-04-16T05:29:25.191Z,89.00
2018-04-16T05:31:53.510Z,88.70
2018-04-16T05:34:21.850Z,86.90
2018-04-16T05:36:50.163Z,86.50
2018-04-16T05:39:18.550Z,85.60
2018-04-16T05:41:46.867Z,84.90
2018-04-16T05:44:15.201Z,85.30
2018-04-16T05:46:43.536Z,83.90
2018-04-16T05:49:11.867Z,83.50
2018-04-16T05:51:40.217Z,83.00
2018-04-16T05:54:08.551Z,82.80
2018-04-16T05:56:36.881Z,82.40
2018-04-16T05:59:05.197Z,82.40
2018-04-16T06:01:33.533Z,82.20
2018-04-16T06:04:01.854Z,82.20
2018-04-16T06:06:29.454Z,82.20
2018-04-16T06:08:57.781Z,80.30
2018-04-16T06:11:26.114Z,79.50
2018-04-16T06:13:54.426Z,79.10
2018-04-16T06:16:22.761Z,78.70
2018-04-16T06:18:51.105Z,78.50
2018-04-16T06:21:19.445Z,77.90
2018-04-16T06:23:47.765Z,77.40
2018-04-16T06:26:16.097Z,77.10
2018-04-16T06:28:44.415Z,76.50
2018-04-16T06:31:12.751Z,76.00
2018-04-16T06:33:41.062Z,75.70
2018-04-16T06:36:09.397Z,75.30
2018-04-16T06:38:37.708Z,75.30
2018-04-16T06:41:06.045Z,75.00
2018-04-16T06:43:34.354Z,74.80
2018-04-16T06:46:02.685Z,74.10
2018-04-16T06:48:31.003Z,73.80
2018-04-16T06:50:59.338Z,72.70
2018-04-16T06:53:27.655Z,72.40
2018-04-16T06:55:55.989Z,72.10
2018-04-16T06:58:24.308Z,71.50
2018-04-16T07:00:52.669Z,71.10
2018-04-16T07:03:20.991Z,70.90
2018-04-16T07:05:49.349Z,71.50
2018-04-16T07:08:17.691Z,71.90
2018-04-16T07:10:46.054Z,72.30
2018-04-16T07:13:14.378Z,72.00
2018-04-16T07:15:42.719Z,71.50
2018-04-16T07:18:11.052Z,70.40
2018-04-16T07:20:39.399Z,69.40
2018-04-16T07:23:07.736Z,68.70
2018-04-16T07:25:36.077Z,67.70
2018-04-16T07:28:04.397Z,66.70
2018-04-16T07:30:32.726Z,65.90
2018-04-16T07:33:01.038Z,64.90
2018-04-16T07:35:29.394Z,64.10
2018-04-16T07:37:57.705Z,63.80
2018-04-16T07:40:26.014Z,63.20
2018-04-16T07:42:54.350Z,62.50
2018-04-16T07:45:22.670Z,61.60
2018-04-16T07:47:50.999Z,60.80
2018-04-16T07:50:19.311Z,60.80
2018-04-16T07:52:47.647Z,61.20
2018-04-16T07:55:15.963Z,60.20
2018-04-16T07:57:44.302Z,59.00
2018-04-16T08:00:12.621Z,58.00
2018-04-16T08:02:40.953Z,57.20
2018-04-16T08:05:09.263Z,56.60
2018-04-16T08:07:37.597Z,55.10
2018-04-16T08:10:05.911Z,54.00
2018-04-16T08:12:34.296Z,53.20
2018-04-16T08:15:02.588Z,52.90
2018-04-16T08:17:30.922Z,52.40
2018-04-16T08:19:59.232Z,52.00
2018-04-16T08:22:27.694Z,52.00
2018-04-16T08:24:55.996Z,52.10
2018-04-16T08:27:24.328Z,52.90
2018-04-16T08:29:52.635Z,52.10
2018-04-16T08:32:20.972Z,51.40
2018-04-16T08:34:49.289Z,50.80
2018-04-16T08:37:17.626Z,50.10
2018-04-16T08:39:45.939Z,49.20
2018-04-16T08:42:14.270Z,49.00
2018-04-16T08:44:42.581Z,49.20
2018-04-16T08:47:11.015Z,49.10
2018-04-16T08:49:39.327Z,49.40
2018-04-16T08:52:07.654Z,50.00
2018-04-16T08:54:35.969Z,50.20
2018-04-16T08:57:04.298Z,50.70
2018-04-16T08:59:32.635Z,50.10
2018-04-16T09:02:00.961Z,50.20
2018-04-16T09:04:29.269Z,50.10
2018-04-16T09:06:57.594Z,50.30
2018-04-16T09:09:25.906Z,50.20
2018-04-16T09:11:54.233Z,49.70
2018-04-16T09:14:22.551Z,49.90
2018-04-16T09:16:50.882Z,50.00
2018-04-16T09:19:19.189Z,49.90
2018-04-16T09:21:47.497Z,50.00
2018-04-16T09:24:15.061Z,49.80
2018-04-16T09:26:43.379Z,49.80
2018-04-16T09:29:11.709Z,48.00
2018-04-16T09:31:40.022Z,46.00
2018-04-16T09:34:08.354Z,45.20
2018-04-16T09:36:36.665Z,43.00
2018-04-16T09:39:06.800Z,44.40
2018-04-16T09:41:35.109Z,45.20
2018-04-16T09:44:03.447Z,45.70
2018-04-16T09:46:31.759Z,45.40
2018-04-16T09:49:00.090Z,45.00
2018-04-16T09:51:28.393Z,43.00
2018-04-16T09:53:56.717Z,42.20
2018-04-16T09:56:25.029Z,42.90
2018-04-16T09:58:53.392Z,43.60
2018-04-16T10:01:21.697Z,43.30
2018-04-16T10:03:50.030Z,41.80
2018-04-16T10:06:18.349Z,40.40
2018-04-16T10:08:46.682Z,40.60
2018-04-16T10:11:14.995Z,40.20
2018-04-16T10:13:43.322Z,39.20
2018-04-16T10:16:11.633Z,38.10
2018-04-16T10:18:39.966Z,39.70
2018-04-16T10:21:08.288Z,39.70
2018-04-16T10:23:36.623Z,39.40
2018-04-16T10:26:04.937Z,38.00
2018-04-16T10:28:33.275Z,38.60
2018-04-16T10:31:01.578Z,39.00
2018-04-16T10:33:29.918Z,38.70
2018-04-16T10:35:58.226Z,38.50
2018-04-16T10:38:26.554Z,38.10
2018-04-16T10:40:54.869Z,37.30
2018-04-16T10:43:23.212Z,35.80
2018-04-16T10:45:51.608Z,34.70
2018-04-16T10:48:19.938Z,35.20
2018-04-16T10:50:48.239Z,35.30
2018-04-16T10:53:16.576Z,35.70
2018-04-16T10:55:44.881Z,34.30
2018-04-16T10:58:13.209Z,34.40
2018-04-16T11:00:41.513Z,34.70
2018-04-16T11:03:09.829Z,35.30
2018-04-16T11:05:38.166Z,35.00
2018-04-16T11:08:06.479Z,35.10
2018-04-16T11:10:34.830Z,35.80
2018-04-16T11:13:03.200Z,35.30
2018-04-16T11:15:31.498Z,34.70
2018-04-16T11:17:59.802Z,33.20
2018-04-16T11:20:28.129Z,33.50
2018-04-16T11:22:56.445Z,33.60
2018-04-16T11:25:24.777Z,32.60
2018-04-16T11:27:53.174Z,32.10
2018-04-16T11:30:21.518Z,32.30
2018-04-16T11:32:49.827Z,33.20
2018-04-16T11:35:18.188Z,32.10
2018-04-16T11:37:46.509Z,31.60
2018-04-16T11:40:14.837Z,31.40
2018-04-16T11:42:43.142Z,31.30
2018-04-16T11:45:11.475Z,31.30
2018-04-16T11:47:39.785Z,31.70
2018-04-16T11:50:08.127Z,31.80
2018-04-16T11:52:36.441Z,31.80
2018-04-16T11:55:04.769Z,31.00
2018-04-16T11:57:33.090Z,31.60
2018-04-16T12:00:00.673Z,31.50
2018-04-16T12:02:28.984Z,30.60
2018-04-16T12:04:57.313Z,29.80
2018-04-16T12:07:25.618Z,29.80
2018-04-16T12:09:53.951Z,29.60
2018-04-16T12:12:22.278Z,30.00
2018-04-16T12:14:50.614Z,30.80
2018-04-16T12:17:18.941Z,30.20
2018-04-16T12:19:47.281Z,28.70
2018-04-16T12:22:15.617Z,28.90
2018-04-16T12:24:43.946Z,28.80
2018-04-16T12:27:12.283Z,29.70
2018-04-16T12:29:40.673Z,29.50
2018-04-16T12:32:08.949Z,29.30
2018-04-16T12:34:37.281Z,29.30
2018-04-16T12:37:05.589Z,29.10
2018-04-16T12:39:33.919Z,29.40
2018-04-16T12:42:02.226Z,29.60
2018-04-16T12:44:30.557Z,30.50
2018-04-16T12:46:58.865Z,30.80
2018-04-16T12:49:27.178Z,30.20
2018-04-16T12:51:55.510Z,30.00
2018-04-16T12:54:23.837Z,30.00
2018-04-16T12:56:52.161Z,30.50
2018-04-16T12:59:20.466Z,30.90
2018-04-16T13:01:49.209Z,31.50
2018-04-16T13:04:17.515Z,32.40
2018-04-16T13:06:45.846Z,32.90
2018-04-16T13:09:14.150Z,32.20
2018-04-16T13:11:42.481Z,31.60
2018-04-16T13:14:10.791Z,30.50
2018-04-16T13:16:39.117Z,29.80
2018-04-16T13:19:07.425Z,30.30
2018-04-16T13:21:35.764Z,30.30
2018-04-16T13:24:04.068Z,30.10
2018-04-16T13:26:32.397Z,29.90
2018-04-16T13:29:00.718Z,30.10
2018-04-16T13:31:29.041Z,30.00
2018-04-16T13:33:57.346Z,29.70
2018-04-16T13:36:25.980Z,29.50
2018-04-16T13:38:54.283Z,30.30
2018-04-16T13:41:22.617Z,30.30
2018-04-16T13:43:50.925Z,30.40
2018-04-16T13:46:19.258Z,31.20
2018-04-16T13:48:47.575Z,31.10
2018-04-16T13:51:15.904Z,30.70
2018-04-16T13:53:44.217Z,30.00
2018-04-16T13:56:12.550Z,29.70
2018-04-16T13:58:40.868Z,29.60
2018-04-16T14:01:09.202Z,29.40
2018-04-16T14:03:37.513Z,28.90
2018-04-16T14:06:05.843Z,29.10
2018-04-16T14:08:34.159Z,29.40
2018-04-16T14:11:02.501Z,29.90
2018-04-16T14:13:30.821Z,29.90
2018-04-16T14:15:59.159Z,29.70
2018-04-16T14:18:27.465Z,30.30
2018-04-16T14:20:55.799Z,31.70
2018-04-16T14:23:24.111Z,31.50
2018-04-16T14:25:52.447Z,30.70
2018-04-16T14:28:20.762Z,32.00
2018-04-16T14:30:49.120Z,32.10
2018-04-16T14:33:17.432Z,31.20
2018-04-16T14:35:45.753Z,31.20
2018-04-16T14:38:14.093Z,33.50
2018-04-16T14:40:42.409Z,33.50
2018-04-16T14:43:10.831Z,34.50
2018-04-16T14:45:39.144Z,35.00
2018-04-16T14:48:07.474Z,35.90
2018-04-16T14:50:35.779Z,36.00
2018-04-16T14:53:04.111Z,36.70
2018-04-16T14:55:32.430Z,36.30
2018-04-16T14:58:00.764Z,36.40
2018-04-16T15:00:29.073Z,35.60
2018-04-16T15:02:57.413Z,36.00
2018-04-16T15:05:25.732Z,35.80
2018-04-16T15:07:54.060Z,35.70
2018-04-16T15:10:22.381Z,35.40
2018-04-16T15:12:50.757Z,34.00
2018-04-16T15:15:19.071Z,33.90
2018-04-16T15:17:47.410Z,32.90
2018-04-16T15:20:15.746Z,33.20
2018-04-16T15:22:44.086Z,33.30
2018-04-16T15:25:12.399Z,32.40
2018-04-16T15:27:40.772Z,32.30
2018-04-16T15:30:09.083Z,31.20
2018-04-16T15:32:37.418Z,32.00
2018-04-16T15:35:05.749Z,32.80
2018-04-16T15:37:34.084Z,33.10
2018-04-16T15:40:02.398Z,33.70
2018-04-16T15:42:30.744Z,33.50
2018-04-16T15:44:59.057Z,32.50
2018-04-16T15:47:27.391Z,32.00
2018-04-16T15:49:55.702Z,32.80
2018-04-16T15:52:24.044Z,34.50
2018-04-16T15:54:52.359Z,34.40
2018-04-16T15:57:20.698Z,34.50
2018-04-16T15:59:49.005Z,36.80
2018-04-16T16:02:17.345Z,39.40
2018-04-16T16:04:45.658Z,40.00
2018-04-16T16:07:13.994Z,40.70
2018-04-16T16:09:42.301Z,41.30
2018-04-16T16:12:10.636Z,42.20
2018-04-16T16:14:38.954Z,42.50
2018-04-16T16:17:07.285Z,42.80
2018-04-16T16:19:35.590Z,43.60
2018-04-16T16:22:03.912Z,43.10
2018-04-16T16:24:32.250Z,42.80
2018-04-16T16:27:00.560Z,42.90
2018-04-16T16:29:28.898Z,42.60
2018-04-16T16:31:57.261Z,42.50
2018-04-16T16:34:25.741Z,42.00
2018-04-16T16:36:54.057Z,42.00
2018-04-16T16:39:22.393Z,41.90
2018-04-16T16:41:50.706Z,42.10
2018-04-16T16:44:19.060Z,41.90
2018-04-16T16:46:47.373Z,41.70
2018-04-16T16:49:15.702Z,41.80
2018-04-16T16:51:44.012Z,41.30
2018-04-16T16:54:12.417Z,41.30
2018-04-16T16:56:40.686Z,41.60
2018-04-16T16:59:09.022Z,41.40
2018-04-16T17:01:37.337Z,41.00
2018-04-16T17:04:05.679Z,41.30
2018-04-16T17:06:34.003Z,41.40
2018-04-16T17:09:01.565Z,41.40
2018-04-16T17:11:29.877Z,39.70
2018-04-16T17:13:58.217Z,38.10
2018-04-16T17:16:26.533Z,36.40
2018-04-16T17:18:54.959Z,35.40
2018-04-16T17:21:23.273Z,34.00
2018-04-16T17:23:51.605Z,33.50
2018-04-16T17:26:19.908Z,32.00
2018-04-16T17:28:48.237Z,32.30
2018-04-16T17:31:16.550Z,31.10
2018-04-16T17:33:44.886Z,30.00
2018-04-16T17:36:13.203Z,30.00
2018-04-16T17:38:41.539Z,30.30
2018-04-16T17:41:09.852Z,30.50
2018-04-16T17:43:38.194Z,31.20
2018-04-16T17:46:06.501Z,31.70
2018-04-16T17:48:34.835Z,32.50
2018-04-16T17:51:03.151Z,33.90
2018-04-16T17:53:31.486Z,34.80
2018-04-16T17:55:59.794Z,36.20
2018-04-16T17:58:28.113Z,37.20
2018-04-16T18:00:56.449Z,38.20
2018-04-16T18:03:24.746Z,39.20
2018-04-16T18:05:52.317Z,39.10
2018-04-16T18:08:20.630Z,40.60
2018-04-16T18:10:48.969Z,41.10
2018-04-16T18:13:17.277Z,41.60
2018-04-16T18:15:45.607Z,42.20
2018-04-16T18:18:13.913Z,42.70
2018-04-16T18:20:42.249Z,43.10
2018-04-16T18:23:10.562Z,43.80
2018-04-16T18:25:38.897Z,44.10
2018-04-16T18:28:07.210Z,44.40
2018-04-16T18:30:35.538Z,45.00
2018-04-16T18:33:03.853Z,45.40
2018-04-16T18:35:32.210Z,45.40
2018-04-16T18:38:00.529Z,45.60
2018-04-16T18:40:28.861Z,46.00
2018-04-16T18:42:57.173Z,46.20
2018-04-16T18:45:25.502Z,46.30
2018-04-16T18:47:53.808Z,46.80
2018-04-16T18:50:22.142Z,47.10
2018-04-16T18:52:50.468Z,47.50
2018-04-16T18:55:18.826Z,48.80
2018-04-16T18:57:47.148Z,49.00
2018-04-16T19:00:15.480Z,49.50
2018-04-16T19:02:43.795Z,49.70
2018-04-16T19:05:12.141Z,50.10
2018-04-16T19:07:40.482Z,50.60
2018-04-16T19:10:08.053Z,50.60
2018-04-16T19:12:36.416Z,51.60
2018-04-16T19:15:04.746Z,52.20
2018-04-16T19:17:33.053Z,52.80
2018-04-16T19:20:01.383Z,53.30
2018-04-16T19:22:29.694Z,53.80
2018-04-16T19:24:58.023Z,54.30
2018-04-16T19:27:31.902Z,54.90
2018-04-16T19:30:00.231Z,55.30
2018-04-16T19:32:34.317Z,55.80
2018-04-16T19:35:07.611Z,56.30
2018-04-16T19:37:35.923Z,56.70
2018-04-16T19:40:04.277Z,57.10
2018-04-16T19:42:43.635Z,57.60
2018-04-16T19:45:11.967Z,58.10
2018-04-16T19:47:40.285Z,58.30
2018-04-16T19:50:08.631Z,58.60
2018-04-16T19:52:36.945Z,58.80
2018-04-16T19:55:04.506Z,58.80
2018-04-16T19:57:38.652Z,59.10
2018-04-16T20:00:06.972Z,59.60
2018-04-16T20:02:41.021Z,59.90
2018-04-16T20:05:09.355Z,60.30
2018-04-16T20:07:37.691Z,60.50
2018-04-16T20:10:06.010Z,60.60
2018-04-16T20:12:34.356Z,60.90
2018-04-16T20:15:02.673Z,61.00
2018-04-16T20:17:31.010Z,61.10
2018-04-16T20:19:59.328Z,61.10
2018-04-16T20:22:27.666Z,61.10
2018-04-16T20:24:55.973Z,61.50
2018-04-16T20:27:24.308Z,61.80
2018-04-16T20:29:52.627Z,62.10
2018-04-16T20:32:20.971Z,62.20
2018-04-16T20:34:49.295Z,62.60
2018-04-16T20:37:17.637Z,63.10
2018-04-16T20:39:45.947Z,63.30
2018-04-16T20:42:14.277Z,63.90
2018-04-16T20:44:42.592Z,64.50
2018-04-16T20:47:10.930Z,65.00
2018-04-16T20:49:39.250Z,65.50
2018-04-16T20:52:07.586Z,65.80
2018-04-16T20:54:35.907Z,66.30
2018-04-16T20:57:04.249Z,66.60
2018-04-16T20:59:32.572Z,67.20
2018-04-16T21:02:00.922Z,67.60
2018-04-16T21:04:29.229Z,67.80
2018-04-16T21:06:57.569Z,67.90
2018-04-16T21:09:25.878Z,68.30
2018-04-16T21:11:54.221Z,68.70
2018-04-16T21:14:22.539Z,68.90
2018-04-16T21:16:50.878Z,69.00
2018-04-16T21:19:19.189Z,69.30
2018-04-16T21:21:47.531Z,69.80
2018-04-16T21:24:15.847Z,70.70
2018-04-16T21:26:44.194Z,71.10
2018-04-16T21:29:12.538Z,71.40
2018-04-16T21:31:40.877Z,72.50
2018-04-16T21:34:09.186Z,72.50
2018-04-16T21:36:37.489Z,72.70
2018-04-16T21:39:05.834Z,72.80
2018-04-16T21:41:34.142Z,73.10
2018-04-16T21:44:02.465Z,73.30
2018-04-16T21:46:30.777Z,73.50
2018-04-16T21:48:59.115Z,74.10
2018-04-16T21:51:27.421Z,74.30
2018-04-16T21:53:55.757Z,74.30
2018-04-16T21:56:24.067Z,75.20
2018-04-16T21:58:52.402Z,74.40
2018-04-16T22:01:20.725Z,74.70
2018-04-16T22:03:49.052Z,74.90
2018-04-16T22:06:17.370Z,75.10
2018-04-16T22:08:45.703Z,75.50
2018-04-16T22:11:14.021Z,75.60
2018-04-16T22:13:42.354Z,75.90
2018-04-16T22:16:10.662Z,76.00
2018-04-16T22:18:38.989Z,76.20
2018-04-16T22:21:07.315Z,76.60
2018-04-16T22:23:35.659Z,76.80
2018-04-16T22:26:03.970Z,76.80
2018-04-16T22:28:32.301Z,76.90
2018-04-16T22:31:00.609Z,77.10
2018-04-16T22:33:28.980Z,77.40
2018-04-16T22:35:57.271Z,77.60
2018-04-16T22:38:25.605Z,77.50
2018-04-16T22:40:53.936Z,77.50
2018-04-16T22:43:22.259Z,77.70
2018-04-16T22:45:50.582Z,77.70
2018-04-16T22:48:18.940Z,77.50
2018-04-16T22:50:47.254Z,77.60
2018-04-16T22:53:15.581Z,77.50
2018-04-16T22:55:43.892Z,77.80
2018-04-16T22:58:12.224Z,77.90
2018-04-16T23:00:40.535Z,78.20
2018-04-16T23:03:08.866Z,78.30
2018-04-16T23:05:37.181Z,78.30
2018-04-16T23:08:05.527Z,78.30
2018-04-16T23:10:33.853Z,78.30
2018-04-16T23:13:02.213Z,78.50
2018-04-16T23:15:30.536Z,78.60
2018-04-16T23:17:58.848Z,78.50
2018-04-16T23:20:27.190Z,78.70
2018-04-16T23:22:55.509Z,78.70
2018-04-16T23:25:23.845Z,78.60
2018-04-16T23:27:52.154Z,78.40
2018-04-16T23:30:20.490Z,78.40
2018-04-16T23:32:48.816Z,78.20
2018-04-16T23:35:17.161Z,78.40
2018-04-16T23:37:45.485Z,78.80
2018-04-16T23:40:13.830Z,78.90
2018-04-16T23:42:42.145Z,79.30
2018-04-16T23:45:10.497Z,79.30
2018-04-16T23:47:38.830Z,79.10
2018-04-16T23:50:07.170Z,79.40
2018-04-16T23:52:35.502Z,79.70
2018-04-16T23:55:03.844Z,79.60
2018-04-16T23:57:32.167Z,79.60
